Time;durP1;ratioP1;P1;durP2;ratioP2;P2;SDS_P1;SDS_P2;PMS_P1;PMS_P2;Temp;Humidity;BMP_temperature;BMP_pressure;BME280_temperature;BME280_humidity;BME280_pressure;Samples;Min_cycle;Max_cycle;Signal;HPM_P1;HPM_P2
2022/10/31 00:00:25;;;;;;;;;;;14.90;99.90;;;;;;4975584;28;19921;-62
2022/10/31 00:02:51;;;;;;;;;;;14.90;99.90;;;;;;4972670;28;20326;-61
2022/10/31 00:05:16;;;;;;;;;;;14.90;99.90;;;;;;4972590;28;19914;-61
2022/10/31 00:07:42;;;;;;;;;;;14.80;99.90;;;;;;4980985;28;19918;-61
2022/10/31 00:10:08;;;;;;;;;;;14.70;99.90;;;;;;4972618;28;20325;-61
2022/10/31 00:12:33;;;;;;;;;;;14.60;99.90;;;;;;4975801;28;19969;-61
2022/10/31 00:14:59;;;;;;;;;;;14.60;99.90;;;;;;4971630;28;19914;-60
2022/10/31 00:17:24;;;;;;;;;;;14.60;99.90;;;;;;4978696;28;20393;-60
2022/10/31 00:19:50;;;;;;;;;;;14.50;99.90;;;;;;4977061;28;20457;-60
2022/10/31 00:22:15;;;;;;;;;;;14.40;99.90;;;;;;4971746;28;19917;-60
2022/10/31 00:24:41;;;;;;;;;;;14.40;99.90;;;;;;4981923;28;19915;-60
2022/10/31 00:27:06;;;;;;;;;;;14.40;99.90;;;;;;4973788;28;19922;-61
2022/10/31 00:29:32;;;;;;;;;;;14.40;99.90;;;;;;4973908;28;19988;-62
2022/10/31 00:31:57;;;;;;;;;;;14.30;99.90;;;;;;4986026;28;19914;-61
2022/10/31 00:34:23;;;;;;;;;;;14.40;99.90;;;;;;4978298;28;19918;-61
2022/10/31 00:36:48;;;;;;;;;;;14.30;99.90;;;;;;4977622;28;19914;-61
2022/10/31 00:39:14;;;;;;;;;;;14.40;99.90;;;;;;4975032;28;19914;-60
2022/10/31 00:41:39;;;;;;;;;;;14.50;99.90;;;;;;4980033;28;20000;-62
2022/10/31 00:44:05;;;;;;;;;;;14.50;99.90;;;;;;4979995;28;19913;-62
2022/10/31 00:46:30;;;;;;;;;;;14.50;99.90;;;;;;4981137;28;19928;-60
2022/10/31 00:48:56;;;;;;;;;;;14.50;99.90;;;;;;4975710;28;19997;-61
2022/10/31 00:51:22;;;;;;;;;;;14.50;99.90;;;;;;4973956;28;19914;-61
2022/10/31 00:53:47;;;;;;;;;;;14.50;99.90;;;;;;4975408;28;20370;-62
2022/10/31 00:56:13;;;;;;;;;;;14.50;99.90;;;;;;4977546;28;20465;-65
2022/10/31 00:58:38;;;;;;;;;;;14.50;99.90;;;;;;4973898;28;19910;-61
2022/10/31 01:01:04;;;;;;;;;;;14.50;99.90;;;;;;4975739;28;20018;-62
2022/10/31 01:03:31;;;;;;;;;;;14.50;99.90;;;;;;4988264;28;20000;-60
2022/10/31 01:06:00;;;;;;;;;;;14.40;99.90;;;;;;4979367;28;19922;-61
2022/10/31 01:08:25;;;;;;;;;;;14.40;99.90;;;;;;4981477;28;19971;-61
2022/10/31 01:11:06;;;;;;;;;;;14.40;99.90;;;;;;4979058;28;20333;-61
2022/10/31 01:13:32;;;;;;;;;;;14.40;99.90;;;;;;4981935;28;19925;-62
2022/10/31 01:15:59;;;;;;;;;;;14.30;99.90;;;;;;4975263;28;19914;-61
2022/10/31 01:18:24;;;;;;;;;;;14.30;99.90;;;;;;4974691;28;19918;-61
2022/10/31 01:21:00;;;;;;;;;;;14.20;99.90;;;;;;4981527;28;19937;-62
2022/10/31 01:23:26;;;;;;;;;;;14.10;99.90;;;;;;4986781;28;20325;-61
2022/10/31 01:26:06;;;;;;;;;;;14.20;99.90;;;;;;4972726;28;19918;-62
2022/10/31 01:28:32;;;;;;;;;;;14.20;99.90;;;;;;4973974;28;19925;-60
2022/10/31 01:31:02;;;;;;;;;;;14.10;99.90;;;;;;4973019;28;20037;-61
2022/10/31 01:33:27;;;;;;;;;;;14.20;99.90;;;;;;4975372;28;19915;-61
2022/10/31 01:35:53;;;;;;;;;;;14.10;99.90;;;;;;4972916;28;19936;-60
2022/10/31 01:38:18;;;;;;;;;;;14.00;99.90;;;;;;4981617;28;20004;-60
2022/10/31 01:40:44;;;;;;;;;;;14.10;99.90;;;;;;4973755;28;20277;-61
2022/10/31 01:43:13;;;;;;;;;;;14.10;99.90;;;;;;4978753;28;20358;-61
2022/10/31 01:45:39;;;;;;;;;;;14.00;99.90;;;;;;4964226;28;20017;-62
2022/10/31 01:48:05;;;;;;;;;;;14.10;99.90;;;;;;4974591;28;20441;-62
2022/10/31 01:50:37;;;;;;;;;;;14.10;99.90;;;;;;4983471;28;20345;-61
2022/10/31 01:53:05;;;;;;;;;;;14.20;99.90;;;;;;4974191;28;20377;-61
2022/10/31 01:55:32;;;;;;;;;;;14.20;99.90;;;;;;4978007;28;20001;-61
2022/10/31 01:58:01;;;;;;;;;;;14.20;99.90;;;;;;4981630;28;20434;-62
2022/10/31 02:00:27;;;;;;;;;;;14.10;99.90;;;;;;4977663;28;19915;-60
2022/10/31 02:02:55;;;;;;;;;;;14.00;99.90;;;;;;4974478;28;19961;-61
2022/10/31 02:05:23;;;;;;;;;;;14.00;99.90;;;;;;4973634;28;19921;-61
2022/10/31 02:07:51;;;;;;;;;;;13.90;99.90;;;;;;4981681;28;20013;-61
2022/10/31 02:10:18;;;;;;;;;;;13.90;99.90;;;;;;4974846;28;19961;-60
2022/10/31 02:12:43;;;;;;;;;;;13.80;99.90;;;;;;4975467;28;19922;-61
2022/10/31 02:15:09;;;;;;;;;;;13.80;99.90;;;;;;4974661;28;19921;-61
2022/10/31 02:17:35;;;;;;;;;;;13.80;99.90;;;;;;4980228;28;19972;-61
2022/10/31 02:20:03;;;;;;;;;;;13.90;99.90;;;;;;4974736;28;19914;-60
2022/10/31 02:22:37;;;;;;;;;;;13.80;99.90;;;;;;4973613;28;19914;-61
2022/10/31 02:25:21;;;;;;;;;;;13.80;99.90;;;;;;4973307;28;20017;-61
2022/10/31 02:27:53;;;;;;;;;;;13.80;99.90;;;;;;4983419;28;19984;-61
2022/10/31 02:30:19;;;;;;;;;;;13.80;99.90;;;;;;4975770;28;20355;-62
2022/10/31 02:32:51;;;;;;;;;;;13.90;99.90;;;;;;4978120;28;19914;-61
2022/10/31 02:35:25;;;;;;;;;;;13.90;99.90;;;;;;4982190;28;20392;-61
2022/10/31 02:37:50;;;;;;;;;;;13.90;99.90;;;;;;4974968;28;20289;-60
2022/10/31 02:40:15;;;;;;;;;;;14.00;99.90;;;;;;4980914;28;19918;-61
2022/10/31 02:42:55;;;;;;;;;;;14.00;99.90;;;;;;4983362;28;19914;-61
2022/10/31 02:45:29;;;;;;;;;;;13.90;99.90;;;;;;4984283;28;19914;-61
2022/10/31 02:47:56;;;;;;;;;;;13.90;99.90;;;;;;4970572;28;19925;-61
2022/10/31 02:50:24;;;;;;;;;;;13.90;99.90;;;;;;4982089;28;20294;-61
2022/10/31 02:52:51;;;;;;;;;;;13.90;99.90;;;;;;4979121;28;19914;-60
2022/10/31 02:55:26;;;;;;;;;;;13.90;99.90;;;;;;4973075;28;19921;-61
2022/10/31 02:57:53;;;;;;;;;;;13.90;99.90;;;;;;4969988;28;19925;-61
2022/10/31 03:00:18;;;;;;;;;;;14.00;99.90;;;;;;4985795;28;19914;-61
2022/10/31 03:02:53;;;;;;;;;;;14.00;99.90;;;;;;4980860;28;20069;-60
2022/10/31 03:05:31;;;;;;;;;;;14.10;99.90;;;;;;4977845;28;19968;-61
2022/10/31 03:08:18;;;;;;;;;;;14.10;99.90;;;;;;4974353;28;19933;-61
2022/10/31 03:10:43;;;;;;;;;;;14.10;99.90;;;;;;4974430;28;19968;-61
2022/10/31 03:13:12;;;;;;;;;;;14.00;99.90;;;;;;4973983;28;19922;-61
2022/10/31 03:15:42;;;;;;;;;;;14.00;99.90;;;;;;4973739;28;19921;-60
2022/10/31 03:18:17;;;;;;;;;;;13.90;99.90;;;;;;4973371;28;19918;-61
2022/10/31 03:20:46;;;;;;;;;;;13.80;99.90;;;;;;4971794;28;19914;-60
2022/10/31 03:23:14;;;;;;;;;;;13.80;99.90;;;;;;4975625;28;20395;-60
2022/10/31 03:25:41;;;;;;;;;;;13.80;99.90;;;;;;4978248;28;19929;-60
2022/10/31 03:28:07;;;;;;;;;;;13.80;99.90;;;;;;4975149;28;19918;-60
2022/10/31 03:30:34;;;;;;;;;;;13.80;99.90;;;;;;4979754;28;19914;-61
2022/10/31 03:33:01;;;;;;;;;;;13.70;99.90;;;;;;4987681;28;19960;-60
2022/10/31 03:35:28;;;;;;;;;;;13.60;99.90;;;;;;4972697;28;19921;-61
2022/10/31 03:37:55;;;;;;;;;;;13.70;99.90;;;;;;4977387;28;19938;-61
2022/10/31 03:40:21;;;;;;;;;;;13.70;99.90;;;;;;4975377;28;20299;-61
2022/10/31 03:42:53;;;;;;;;;;;13.70;99.90;;;;;;4981724;28;19918;-61
2022/10/31 03:45:22;;;;;;;;;;;13.70;99.90;;;;;;4982304;28;19918;-61
2022/10/31 03:47:47;;;;;;;;;;;13.70;99.90;;;;;;4980075;28;20051;-61
2022/10/31 03:50:14;;;;;;;;;;;13.70;99.90;;;;;;4972010;28;20349;-60
2022/10/31 03:52:56;;;;;;;;;;;13.80;99.90;;;;;;4980791;28;19914;-60
2022/10/31 03:55:26;;;;;;;;;;;13.80;99.90;;;;;;4980148;28;19968;-60
2022/10/31 03:58:00;;;;;;;;;;;13.80;99.90;;;;;;4973270;28;19915;-61
2022/10/31 04:00:25;;;;;;;;;;;13.80;99.90;;;;;;4974380;28;19918;-60
2022/10/31 04:02:57;;;;;;;;;;;13.80;99.90;;;;;;4983534;28;19921;-60
2022/10/31 04:05:23;;;;;;;;;;;13.90;99.90;;;;;;4974798;28;19996;-60
2022/10/31 04:07:51;;;;;;;;;;;13.90;99.90;;;;;;4971785;28;19972;-61
2022/10/31 04:10:18;;;;;;;;;;;13.80;99.90;;;;;;4978096;28;20380;-61
2022/10/31 04:12:47;;;;;;;;;;;13.80;99.90;;;;;;4980483;28;20374;-61
2022/10/31 04:15:13;;;;;;;;;;;13.80;99.90;;;;;;4978148;28;19965;-61
2022/10/31 04:17:40;;;;;;;;;;;13.90;99.90;;;;;;4985369;28;19918;-61
2022/10/31 04:20:06;;;;;;;;;;;13.90;99.90;;;;;;4973080;28;19921;-61
2022/10/31 04:22:31;;;;;;;;;;;13.90;99.90;;;;;;4977389;28;19914;-61
2022/10/31 04:24:57;;;;;;;;;;;13.90;99.90;;;;;;4969333;28;19922;-61
2022/10/31 04:27:22;;;;;;;;;;;13.90;99.90;;;;;;4975479;28;19948;-61
2022/10/31 04:29:48;;;;;;;;;;;13.90;99.90;;;;;;4982663;28;19914;-61
2022/10/31 04:32:13;;;;;;;;;;;13.90;99.90;;;;;;4975819;28;19925;-61
2022/10/31 04:34:39;;;;;;;;;;;13.90;99.90;;;;;;4980037;28;20330;-61
2022/10/31 04:37:04;;;;;;;;;;;13.90;99.90;;;;;;4974594;28;19981;-61
2022/10/31 04:39:30;;;;;;;;;;;13.80;99.90;;;;;;4973506;28;20392;-61
2022/10/31 04:41:55;;;;;;;;;;;13.80;99.90;;;;;;4973241;28;19924;-61
2022/10/31 04:44:21;;;;;;;;;;;13.80;99.90;;;;;;4978557;28;19969;-61
2022/10/31 04:46:46;;;;;;;;;;;13.70;99.90;;;;;;4983693;28;19922;-60
2022/10/31 04:49:12;;;;;;;;;;;13.60;99.90;;;;;;4975229;28;20344;-61
2022/10/31 04:51:37;;;;;;;;;;;13.60;99.90;;;;;;4986345;28;20012;-61
2022/10/31 04:54:03;;;;;;;;;;;13.60;99.90;;;;;;4972435;28;19930;-61
2022/10/31 04:56:29;;;;;;;;;;;13.60;99.90;;;;;;4982311;28;19914;-61
2022/10/31 04:58:54;;;;;;;;;;;13.60;99.90;;;;;;4978124;28;19921;-61
2022/10/31 05:01:20;;;;;;;;;;;13.60;99.90;;;;;;4976869;28;19914;-61
2022/10/31 05:03:45;;;;;;;;;;;13.50;99.90;;;;;;4984500;28;19913;-61
2022/10/31 05:06:11;;;;;;;;;;;13.40;99.90;;;;;;4979235;28;19929;-61
2022/10/31 05:08:36;;;;;;;;;;;13.40;99.90;;;;;;4973209;28;19968;-61
2022/10/31 05:11:03;;;;;;;;;;;13.50;99.90;;;;;;4981210;28;19914;-61
2022/10/31 05:13:28;;;;;;;;;;;13.40;99.90;;;;;;4987552;28;19922;-61
2022/10/31 05:15:54;;;;;;;;;;;13.50;99.90;;;;;;4971422;28;20029;-61
2022/10/31 05:18:19;;;;;;;;;;;13.40;99.90;;;;;;4979101;28;20366;-61
2022/10/31 05:20:45;;;;;;;;;;;13.40;99.90;;;;;;4972184;28;19914;-61
2022/10/31 05:23:10;;;;;;;;;;;13.40;99.90;;;;;;4977968;28;20373;-60
2022/10/31 05:25:36;;;;;;;;;;;13.30;99.90;;;;;;4984245;28;19968;-60
2022/10/31 05:28:01;;;;;;;;;;;13.30;99.90;;;;;;4972281;28;19945;-60
2022/10/31 05:30:28;;;;;;;;;;;13.20;99.90;;;;;;4977625;28;19921;-60
2022/10/31 05:32:54;;;;;;;;;;;13.10;99.90;;;;;;4976759;28;19924;-60
2022/10/31 05:35:22;;;;;;;;;;;13.10;99.90;;;;;;4972024;28;20017;-60
2022/10/31 05:37:47;;;;;;;;;;;13.10;99.90;;;;;;4985924;28;20437;-60
2022/10/31 05:40:14;;;;;;;;;;;13.10;99.90;;;;;;4973178;28;19945;-60
2022/10/31 05:42:40;;;;;;;;;;;12.90;99.90;;;;;;4968999;28;19961;-60
2022/10/31 05:45:07;;;;;;;;;;;12.80;99.90;;;;;;4976078;28;19921;-60
2022/10/31 05:47:32;;;;;;;;;;;12.80;99.90;;;;;;4978762;28;20301;-61
2022/10/31 05:49:58;;;;;;;;;;;12.80;99.90;;;;;;4988921;28;19920;-61
2022/10/31 05:52:24;;;;;;;;;;;12.70;99.90;;;;;;4986454;28;20312;-61
2022/10/31 05:54:49;;;;;;;;;;;12.80;99.90;;;;;;4977806;28;19921;-61
2022/10/31 05:57:15;;;;;;;;;;;12.60;99.90;;;;;;4971582;28;19969;-61
2022/10/31 05:59:40;;;;;;;;;;;12.60;99.90;;;;;;4982159;28;19976;-61
2022/10/31 06:02:06;;;;;;;;;;;12.70;99.90;;;;;;4975625;28;20005;-61
2022/10/31 06:04:31;;;;;;;;;;;12.70;99.90;;;;;;4987669;28;19917;-60
2022/10/31 06:06:57;;;;;;;;;;;12.60;99.90;;;;;;4973920;28;20271;-60
2022/10/31 06:09:23;;;;;;;;;;;12.50;99.90;;;;;;4979256;28;19922;-61
2022/10/31 06:11:48;;;;;;;;;;;12.50;99.90;;;;;;4970666;28;19949;-60
2022/10/31 06:14:14;;;;;;;;;;;12.50;99.90;;;;;;4970406;28;19918;-61
2022/10/31 06:16:40;;;;;;;;;;;12.40;99.90;;;;;;4974078;28;19914;-61
2022/10/31 06:19:05;;;;;;;;;;;12.30;99.90;;;;;;4969351;28;19914;-61
2022/10/31 06:21:31;;;;;;;;;;;12.40;99.90;;;;;;4977997;28;19936;-61
2022/10/31 06:23:56;;;;;;;;;;;12.30;99.90;;;;;;4969325;28;20297;-61
2022/10/31 06:26:22;;;;;;;;;;;12.40;99.90;;;;;;4976746;28;20013;-61
2022/10/31 06:28:47;;;;;;;;;;;12.30;99.90;;;;;;4969426;28;19921;-61
2022/10/31 06:31:13;;;;;;;;;;;12.30;99.90;;;;;;4972783;28;19957;-61
2022/10/31 06:33:40;;;;;;;;;;;12.20;99.90;;;;;;4973483;28;19915;-62
2022/10/31 06:36:06;;;;;;;;;;;12.20;99.90;;;;;;4973050;28;19921;-61
2022/10/31 06:38:31;;;;;;;;;;;12.20;99.90;;;;;;4975501;28;19914;-61
2022/10/31 06:40:57;;;;;;;;;;;12.20;99.90;;;;;;4968498;28;21182;-61
2022/10/31 06:43:22;;;;;;;;;;;12.40;99.90;;;;;;4978612;28;19914;-61
2022/10/31 06:45:48;;;;;;;;;;;12.40;99.90;;;;;;4973257;28;19966;-61
2022/10/31 06:48:13;;;;;;;;;;;12.50;99.90;;;;;;4970805;28;20334;-61
2022/10/31 06:50:39;;;;;;;;;;;12.50;99.90;;;;;;4972948;28;19914;-61
2022/10/31 06:53:04;;;;;;;;;;;12.60;99.90;;;;;;4972971;28;20005;-61
2022/10/31 06:55:30;;;;;;;;;;;12.60;99.90;;;;;;4977669;28;19918;-61
2022/10/31 06:57:57;;;;;;;;;;;12.60;99.90;;;;;;4971499;28;19924;-62
2022/10/31 07:00:23;;;;;;;;;;;12.90;99.90;;;;;;4973169;28;19976;-61
2022/10/31 07:02:55;;;;;;;;;;;12.90;99.90;;;;;;4965053;28;19922;-61
2022/10/31 07:05:21;;;;;;;;;;;13.00;99.90;;;;;;4977864;28;19914;-61
2022/10/31 07:07:47;;;;;;;;;;;13.10;99.90;;;;;;4975746;28;19953;-61
2022/10/31 07:10:12;;;;;;;;;;;13.20;99.90;;;;;;4981089;28;19952;-60
2022/10/31 07:12:38;;;;;;;;;;;13.40;99.90;;;;;;4986008;28;19917;-61
2022/10/31 07:15:04;;;;;;;;;;;13.40;99.90;;;;;;4973595;28;20382;-60
2022/10/31 07:17:30;;;;;;;;;;;13.50;99.90;;;;;;4969524;28;19949;-61
2022/10/31 07:19:56;;;;;;;;;;;13.60;99.90;;;;;;4973550;28;19922;-60
2022/10/31 07:22:21;;;;;;;;;;;13.80;99.90;;;;;;4971425;28;19914;-61
2022/10/31 07:24:47;;;;;;;;;;;13.90;99.90;;;;;;4974418;28;19922;-61
2022/10/31 07:27:12;;;;;;;;;;;13.90;99.90;;;;;;4971796;28;19929;-61
2022/10/31 07:29:38;;;;;;;;;;;14.00;99.90;;;;;;4982140;28;19914;-61
2022/10/31 07:32:04;;;;;;;;;;;13.90;99.90;;;;;;4975489;28;19914;-62
2022/10/31 07:34:29;;;;;;;;;;;13.90;99.90;;;;;;4971956;28;20358;-62
2022/10/31 07:36:55;;;;;;;;;;;13.90;99.90;;;;;;4971482;28;19936;-62
2022/10/31 07:39:20;;;;;;;;;;;13.80;99.90;;;;;;4968468;28;20344;-62
2022/10/31 07:41:46;;;;;;;;;;;13.80;99.90;;;;;;4963000;28;20374;-62
2022/10/31 07:44:11;;;;;;;;;;;13.80;99.90;;;;;;4968780;28;19914;-61
2022/10/31 07:46:37;;;;;;;;;;;13.80;99.90;;;;;;4974542;28;20325;-61
2022/10/31 07:49:03;;;;;;;;;;;13.70;99.90;;;;;;4962498;28;19977;-61
2022/10/31 07:51:29;;;;;;;;;;;13.70;99.90;;;;;;4965091;28;19922;-61
2022/10/31 07:53:54;;;;;;;;;;;13.60;99.90;;;;;;4972082;28;20022;-62
2022/10/31 07:56:20;;;;;;;;;;;13.60;99.90;;;;;;4970565;28;19914;-61
2022/10/31 07:58:45;;;;;;;;;;;13.60;99.90;;;;;;4969087;28;19914;-61
2022/10/31 08:01:11;;;;;;;;;;;13.60;99.90;;;;;;4971683;28;19922;-61
2022/10/31 08:03:36;;;;;;;;;;;13.60;99.90;;;;;;4975519;28;19917;-60
2022/10/31 08:06:02;;;;;;;;;;;13.60;99.90;;;;;;4971942;28;20036;-61
2022/10/31 08:08:28;;;;;;;;;;;13.70;99.90;;;;;;4971673;28;20349;-61
2022/10/31 08:10:54;;;;;;;;;;;13.70;99.90;;;;;;4974540;28;19968;-61
2022/10/31 08:13:20;;;;;;;;;;;13.70;99.90;;;;;;4975134;28;19922;-61
2022/10/31 08:15:49;;;;;;;;;;;13.70;99.90;;;;;;4968959;28;19914;-61
2022/10/31 08:18:15;;;;;;;;;;;13.70;99.90;;;;;;4977967;28;19914;-61
2022/10/31 08:20:41;;;;;;;;;;;13.80;99.90;;;;;;4979250;28;19924;-61
2022/10/31 08:23:08;;;;;;;;;;;14.00;99.90;;;;;;4969421;28;19922;-61
2022/10/31 08:25:34;;;;;;;;;;;14.00;99.90;;;;;;4978494;28;20396;-60
2022/10/31 08:28:00;;;;;;;;;;;14.10;99.90;;;;;;4966612;28;19917;-60
2022/10/31 08:30:27;;;;;;;;;;;14.10;99.90;;;;;;4970903;28;19921;-61
2022/10/31 08:33:09;;;;;;;;;;;14.20;99.90;;;;;;4963573;28;20355;-61
2022/10/31 08:35:35;;;;;;;;;;;14.20;99.90;;;;;;4977287;28;19921;-60
2022/10/31 08:38:01;;;;;;;;;;;14.20;99.90;;;;;;4968934;28;19913;-61
2022/10/31 08:40:27;;;;;;;;;;;14.30;99.90;;;;;;4971509;28;19918;-61
2022/10/31 08:43:00;;;;;;;;;;;14.50;99.90;;;;;;4972052;28;19969;-61
2022/10/31 08:45:26;;;;;;;;;;;14.70;99.90;;;;;;4972119;28;19914;-61
2022/10/31 08:47:52;;;;;;;;;;;15.00;99.90;;;;;;4967928;28;20334;-60
2022/10/31 08:50:17;;;;;;;;;;;15.20;99.90;;;;;;4969538;28;19965;-61
2022/10/31 08:52:43;;;;;;;;;;;15.30;99.90;;;;;;4976627;28;19925;-62
2022/10/31 08:55:08;;;;;;;;;;;15.30;99.90;;;;;;4974727;28;19921;-60
2022/10/31 08:57:34;;;;;;;;;;;15.20;99.90;;;;;;4964335;28;19914;-61
2022/10/31 08:59:59;;;;;;;;;;;15.10;99.90;;;;;;4978008;28;20001;-62
2022/10/31 09:02:25;;;;;;;;;;;15.20;99.90;;;;;;4971824;28;20381;-61
2022/10/31 09:04:50;;;;;;;;;;;15.30;99.90;;;;;;4968810;28;19972;-61
2022/10/31 09:07:17;;;;;;;;;;;15.40;99.90;;;;;;4973217;28;20024;-61
2022/10/31 09:09:42;;;;;;;;;;;15.50;99.90;;;;;;4963847;28;20049;-60
2022/10/31 09:12:08;;;;;;;;;;;15.70;99.90;;;;;;4963090;28;20009;-61
2022/10/31 09:14:33;;;;;;;;;;;15.70;99.90;;;;;;4964424;28;20396;-61
2022/10/31 09:16:59;;;;;;;;;;;15.70;99.90;;;;;;4963500;28;19918;-60
2022/10/31 09:19:24;;;;;;;;;;;15.90;99.90;;;;;;4967632;28;20362;-62
2022/10/31 09:21:53;;;;;;;;;;;16.00;99.90;;;;;;4970185;28;19914;-60
2022/10/31 09:24:19;;;;;;;;;;;16.00;99.90;;;;;;4968320;28;19921;-60
2022/10/31 09:26:44;;;;;;;;;;;16.10;99.90;;;;;;4966842;28;19997;-60
2022/10/31 09:29:10;;;;;;;;;;;16.00;99.90;;;;;;4965500;28;19961;-60
2022/10/31 09:31:36;;;;;;;;;;;15.90;99.90;;;;;;4979415;28;19914;-61
2022/10/31 09:34:01;;;;;;;;;;;15.90;99.90;;;;;;4966868;28;20032;-60
2022/10/31 09:36:27;;;;;;;;;;;15.90;99.90;;;;;;4969964;28;20285;-60
2022/10/31 09:38:52;;;;;;;;;;;15.90;99.90;;;;;;4968057;28;19914;-60
2022/10/31 09:41:18;;;;;;;;;;;16.10;99.90;;;;;;4971414;28;19918;-61
2022/10/31 09:43:50;;;;;;;;;;;16.10;99.90;;;;;;4968356;28;19914;-61
2022/10/31 09:46:35;;;;;;;;;;;16.30;99.90;;;;;;4969192;28;19918;-60
2022/10/31 09:49:01;;;;;;;;;;;16.60;99.90;;;;;;4968108;28;20445;-61
2022/10/31 09:51:32;;;;;;;;;;;16.80;99.90;;;;;;4970161;28;20013;-61
2022/10/31 09:54:13;;;;;;;;;;;17.00;99.90;;;;;;4968235;28;19914;-62
2022/10/31 09:56:38;;;;;;;;;;;17.00;99.90;;;;;;4973202;28;19921;-61
2022/10/31 09:59:05;;;;;;;;;;;17.00;99.90;;;;;;4975922;28;19913;-62
2022/10/31 10:01:37;;;;;;;;;;;17.10;99.90;;;;;;4971426;28;20054;-61
2022/10/31 10:04:15;;;;;;;;;;;17.10;99.90;;;;;;4969030;28;19914;-61
2022/10/31 10:06:44;;;;;;;;;;;17.00;99.90;;;;;;4970152;28;19922;-59
2022/10/31 10:09:09;;;;;;;;;;;16.80;99.90;;;;;;4971316;28;19913;-61
2022/10/31 10:11:53;;;;;;;;;;;16.80;99.90;;;;;;4968214;28;19914;-60
2022/10/31 10:14:21;;;;;;;;;;;16.80;99.90;;;;;;4967949;28;19922;-61
2022/10/31 10:16:47;;;;;;;;;;;16.70;99.90;;;;;;4966430;28;20009;-61
2022/10/31 10:19:12;;;;;;;;;;;16.70;99.90;;;;;;4963524;28;20951;-61
2022/10/31 10:21:38;;;;;;;;;;;16.70;99.90;;;;;;4970609;28;19918;-61
2022/10/31 10:24:13;;;;;;;;;;;16.80;99.90;;;;;;4969498;28;19957;-61
2022/10/31 10:26:45;;;;;;;;;;;16.90;99.90;;;;;;4973752;28;20359;-60
2022/10/31 10:29:29;;;;;;;;;;;16.90;99.90;;;;;;4965639;28;20444;-62
2022/10/31 10:31:57;;;;;;;;;;;17.10;99.90;;;;;;4965027;28;20293;-61
2022/10/31 10:34:36;;;;;;;;;;;17.40;99.90;;;;;;4970832;28;19914;-61
2022/10/31 10:37:08;;;;;;;;;;;17.60;99.90;;;;;;4968285;28;19914;-61
2022/10/31 10:39:40;;;;;;;;;;;17.80;99.90;;;;;;4970901;28;19992;-61
2022/10/31 10:47:42;;;;;;;;;;;17.80;99.90;;;;;;4969208;28;19968;-61
2022/10/31 10:50:16;;;;;;;;;;;17.70;99.90;;;;;;4961891;28;19914;-61
2022/10/31 10:52:48;;;;;;;;;;;17.70;99.90;;;;;;4970115;28;20381;-60
2022/10/31 10:55:26;;;;;;;;;;;17.70;99.90;;;;;;4970351;28;19922;-61
2022/10/31 10:57:54;;;;;;;;;;;17.60;99.90;;;;;;4968974;28;20006;-61
2022/10/31 11:00:21;;;;;;;;;;;17.60;99.90;;;;;;4971700;28;19913;-62
2022/10/31 11:02:47;;;;;;;;;;;17.70;99.90;;;;;;4966855;28;19925;-61
2022/10/31 11:05:18;;;;;;;;;;;18.10;99.90;;;;;;4970546;28;19918;-61
2022/10/31 11:07:43;;;;;;;;;;;18.80;99.90;;;;;;4966499;28;19926;-62
2022/10/31 11:10:16;;;;;;;;;;;19.50;99.90;;;;;;4969515;28;19921;-61
2022/10/31 11:12:42;;;;;;;;;;;19.80;99.90;;;;;;4963038;28;20389;-61
2022/10/31 11:15:17;;;;;;;;;;;20.10;99.90;;;;;;4969603;28;19969;-61
2022/10/31 11:17:48;;;;;;;;;;;20.00;99.90;;;;;;4967612;28;19914;-63
2022/10/31 11:20:13;;;;;;;;;;;20.40;99.90;;;;;;4968319;28;19993;-60
2022/10/31 11:22:45;;;;;;;;;;;20.70;99.90;;;;;;4973872;28;20005;-61
2022/10/31 11:25:29;;;;;;;;;;;20.60;99.90;;;;;;4972589;28;19914;-62
2022/10/31 11:28:00;;;;;;;;;;;20.60;99.90;;;;;;4961684;28;20004;-61
2022/10/31 11:30:26;;;;;;;;;;;20.30;99.90;;;;;;4969177;28;19914;-61
2022/10/31 11:32:52;;;;;;;;;;;20.00;99.90;;;;;;4961629;28;20026;-61
2022/10/31 11:35:19;;;;;;;;;;;19.90;99.90;;;;;;4966855;28;20385;-61
2022/10/31 11:37:46;;;;;;;;;;;20.10;99.90;;;;;;4969366;28;19921;-61
2022/10/31 11:40:20;;;;;;;;;;;20.70;99.90;;;;;;4969307;28;19914;-61
2022/10/31 11:42:46;;;;;;;;;;;21.00;99.90;;;;;;4966788;28;20013;-61
2022/10/31 11:45:23;;;;;;;;;;;21.50;99.90;;;;;;4968561;28;20028;-62
2022/10/31 11:47:50;;;;;;;;;;;21.40;99.90;;;;;;4963741;28;19929;-62
2022/10/31 11:50:19;;;;;;;;;;;21.50;99.90;;;;;;4968644;28;19914;-61
2022/10/31 11:52:45;;;;;;;;;;;21.70;99.90;;;;;;4971086;28;20274;-61
2022/10/31 11:55:37;;;;;;;;;;;21.80;99.90;;;;;;4968913;28;20449;-61
2022/10/31 11:58:03;;;;;;;;;;;21.80;99.90;;;;;;4965122;28;19914;-62
2022/10/31 12:00:30;;;;;;;;;;;22.30;99.90;;;;;;4968788;28;19921;-61
2022/10/31 12:03:15;;;;;;;;;;;22.00;99.90;;;;;;4967439;28;19921;-61
2022/10/31 12:05:41;;;;;;;;;;;21.90;99.90;;;;;;4968467;28;20051;-62
2022/10/31 12:08:11;;;;;;;;;;;21.70;99.90;;;;;;4970079;28;19922;-61
2022/10/31 12:10:51;;;;;;;;;;;21.20;99.90;;;;;;4974884;28;19948;-61
2022/10/31 12:13:19;;;;;;;;;;;20.90;99.90;;;;;;4957153;28;19938;-60
2022/10/31 12:15:50;;;;;;;;;;;21.30;99.90;;;;;;4968804;28;19920;-61
2022/10/31 12:18:34;;;;;;;;;;;21.60;99.90;;;;;;4964587;28;19918;-61
2022/10/31 12:21:02;;;;;;;;;;;21.70;99.90;;;;;;4971847;28;19914;-61
2022/10/31 12:23:28;;;;;;;;;;;21.60;99.90;;;;;;4965899;28;19954;-61
2022/10/31 12:26:13;;;;;;;;;;;21.20;99.90;;;;;;4969218;28;20550;-60
2022/10/31 12:28:45;;;;;;;;;;;20.60;99.90;;;;;;4967329;28;20408;-61
2022/10/31 12:31:13;;;;;;;;;;;20.00;99.90;;;;;;4970805;28;19914;-60
2022/10/31 12:33:38;;;;;;;;;;;19.50;99.90;;;;;;4969212;28;20374;-62
2022/10/31 12:36:29;;;;;;;;;;;19.00;99.90;;;;;;4969951;28;19971;-61
2022/10/31 12:39:14;;;;;;;;;;;18.80;99.90;;;;;;4960540;28;20012;-61
2022/10/31 12:42:04;;;;;;;;;;;18.60;99.90;;;;;;4975965;28;20435;-61
2022/10/31 12:44:48;;;;;;;;;;;18.60;99.90;;;;;;4965062;28;19918;-61
2022/10/31 12:47:22;;;;;;;;;;;18.50;99.90;;;;;;4966023;28;19926;-62
2022/10/31 12:49:53;;;;;;;;;;;18.50;99.90;;;;;;4964581;28;19918;-62
2022/10/31 12:52:25;;;;;;;;;;;18.50;99.90;;;;;;4965146;28;19914;-62
2022/10/31 12:55:05;;;;;;;;;;;18.30;99.90;;;;;;4973452;28;19914;-61
2022/10/31 12:57:38;;;;;;;;;;;18.30;99.90;;;;;;4970798;28;20654;-63
2022/10/31 13:00:10;;;;;;;;;;;18.30;99.90;;;;;;4969768;28;19914;-61
2022/10/31 13:02:39;;;;;;;;;;;18.20;99.90;;;;;;4970960;28;19922;-61
2022/10/31 13:05:11;;;;;;;;;;;18.10;99.90;;;;;;4971211;28;19921;-61
2022/10/31 13:07:39;;;;;;;;;;;18.10;99.90;;;;;;4973523;28;19941;-61
2022/10/31 13:10:14;;;;;;;;;;;18.00;99.90;;;;;;4973155;28;19914;-61
2022/10/31 13:12:40;;;;;;;;;;;17.80;99.90;;;;;;4968416;28;19926;-62
2022/10/31 13:15:14;;;;;;;;;;;17.80;99.90;;;;;;4974746;28;19914;-63
2022/10/31 13:17:43;;;;;;;;;;;17.80;99.90;;;;;;4972220;28;19914;-62
2022/10/31 13:20:14;;;;;;;;;;;17.80;99.90;;;;;;4972978;28;19914;-62
2022/10/31 13:22:42;;;;;;;;;;;17.80;99.90;;;;;;4968991;28;19937;-61
2022/10/31 13:25:14;;;;;;;;;;;17.60;99.90;;;;;;4976005;28;19925;-61
2022/10/31 13:27:58;;;;;;;;;;;17.50;99.90;;;;;;4973607;28;20393;-61
2022/10/31 13:30:25;;;;;;;;;;;17.60;99.90;;;;;;4976649;28;19930;-62
2022/10/31 13:33:00;;;;;;;;;;;17.50;99.90;;;;;;4971543;28;19926;-62
2022/10/31 13:35:29;;;;;;;;;;;17.50;99.90;;;;;;4974664;28;19925;-62
2022/10/31 13:38:02;;;;;;;;;;;17.40;99.90;;;;;;4971780;28;19919;-62
2022/10/31 13:40:30;;;;;;;;;;;17.30;99.90;;;;;;4974405;28;19973;-62
2022/10/31 13:43:22;;;;;;;;;;;17.30;99.90;;;;;;4979981;28;19921;-62
2022/10/31 13:45:50;;;;;;;;;;;17.20;99.90;;;;;;4966519;28;20271;-61
2022/10/31 13:48:15;;;;;;;;;;;17.20;99.90;;;;;;4971113;28;20354;-61
2022/10/31 13:50:42;;;;;;;;;;;17.20;99.90;;;;;;4971749;28;20433;-61
2022/10/31 13:53:16;;;;;;;;;;;17.20;99.90;;;;;;4973177;28;19981;-61
2022/10/31 13:55:43;;;;;;;;;;;17.10;99.90;;;;;;4973619;28;21147;-61
2022/10/31 13:58:27;;;;;;;;;;;17.10;99.90;;;;;;4966772;28;19914;-61
2022/10/31 14:01:31;;;;;;;;;;;17.10;99.90;;;;;;4968935;28;20389;-61
2022/10/31 14:04:03;;;;;;;;;;;17.20;99.90;;;;;;5004134;28;19939;-60
2022/10/31 14:06:47;;;;;;;;;;;17.10;99.90;;;;;;5005612;28;19992;-61
2022/10/31 14:09:18;;;;;;;;;;;17.20;99.90;;;;;;5003343;28;19917;-61
2022/10/31 14:11:46;;;;;;;;;;;17.30;99.90;;;;;;5007824;28;20261;-61
2022/10/31 14:14:12;;;;;;;;;;;17.40;99.90;;;;;;5005534;28;19922;-62
2022/10/31 14:16:39;;;;;;;;;;;17.40;99.90;;;;;;4998142;28;19921;-63
2022/10/31 14:19:06;;;;;;;;;;;17.40;99.90;;;;;;5005362;28;19914;-62
2022/10/31 14:21:38;;;;;;;;;;;17.40;99.90;;;;;;5007089;28;19921;-62
2022/10/31 14:24:13;;;;;;;;;;;17.50;99.90;;;;;;5004515;28;20405;-62
2022/10/31 14:26:39;;;;;;;;;;;17.90;99.90;;;;;;4998932;28;19948;-61
2022/10/31 14:29:13;;;;;;;;;;;18.30;99.90;;;;;;5004372;28;19914;-62